Huguenot, New York
Current Conditions -  °F | °C
As of 7:53 PM on Friday 19 Dec 2014 (Local Time) from KFWN Reporting Station
Overcast Overcast  
Wind Chill: 23°   Ceiling: 2500
Heat Index: 30°   Visibility: 10mi
Dew Point: 20°   Wind: 7mph
Humidity: 66%   Direction: NA
Pressure: 30.15"   Gusts: NA
Location:  41.41°N, 74.61°W
Report Text: KFWN 200053Z AUTO VRB06KT 10SM OVC025 M01/M07 A3015 RMK AO2 SLP214 T10111067
Loading
Personal Weather Stations






























Interactive Weather Map New forecast layout! Learn more

10-Day Weather Forecast

Advertisements
Track Severe Weather on mobile